Terminal Aerodrome Forecast
Issued by NWS

Home | Current Version | Previous Version | Text Only | Print | Product List | Glossary On
Versions: 1 2 3 4 5 6 7 8 9 10 11 12 13 14 15 16
000
FTUS45 KTFX 041049 AAA
TAFCTB
TAF AMD
KCTB 041049Z 0411/0506 31011KT P6SM SKC
     FM041300 33015KT P6SM SCT100 SCT200
     FM042000 01011KT P6SM VCTS SCT070CB BKN110 PROB30 0422/0502
      VRB28G40KT -TSRA BKN050CB
     FM050200 03015KT P6SM -SHRA SCT030 BKN050=

USA.gov is the U.S. government's official web portal to all federal, state and local government web resources and services.